sensor_id;sensor_type;location;lat;lon;timestamp;pressure;altitude;pressure_sealevel;temperature;humidity
66801;BME280;53703;50.326;19.122;2023-06-10T00:00:58;98409.48;;;19.92;69.25
66801;BME280;53703;50.326;19.122;2023-06-10T00:03:53;98408.09;;;19.90;69.26
66801;BME280;53703;50.326;19.122;2023-06-10T00:06:47;98400.96;;;19.86;69.59
66801;BME280;53703;50.326;19.122;2023-06-10T00:16:02;98402.27;;;19.96;68.85
66801;BME280;53703;50.326;19.122;2023-06-10T00:25:28;98410.77;;;19.85;69.13
66801;BME280;53703;50.326;19.122;2023-06-10T00:28:18;98411.91;;;19.91;68.71
66801;BME280;53703;50.326;19.122;2023-06-10T00:31:24;98413.33;;;19.91;68.57
66801;BME280;53703;50.326;19.122;2023-06-10T00:34:19;98415.22;;;19.90;68.66
66801;BME280;53703;50.326;19.122;2023-06-10T00:36:58;98417.14;;;19.92;68.44
66801;BME280;53703;50.326;19.122;2023-06-10T00:39:52;98419.02;;;19.86;68.57
66801;BME280;53703;50.326;19.122;2023-06-10T00:42:32;98416.58;;;19.92;68.34
66801;BME280;53703;50.326;19.122;2023-06-10T00:45:26;98416.23;;;19.85;68.72
66801;BME280;53703;50.326;19.122;2023-06-10T00:48:20;98419.64;;;19.86;68.42
66801;BME280;53703;50.326;19.122;2023-06-10T00:51:15;98421.05;;;19.89;68.15
66801;BME280;53703;50.326;19.122;2023-06-10T00:54:10;98417.75;;;19.91;68.04
66801;BME280;53703;50.326;19.122;2023-06-10T00:57:07;98423.95;;;19.96;67.86
66801;BME280;53703;50.326;19.122;2023-06-10T01:00:01;98422.77;;;19.93;67.85
66801;BME280;53703;50.326;19.122;2023-06-10T01:03:00;98422.33;;;19.90;67.98
66801;BME280;53703;50.326;19.122;2023-06-10T01:12:46;98424.79;;;19.91;67.94
66801;BME280;53703;50.326;19.122;2023-06-10T01:15:46;98429.80;;;19.92;67.91
66801;BME280;53703;50.326;19.122;2023-06-10T01:18:42;98425.23;;;19.93;67.61
66801;BME280;53703;50.326;19.122;2023-06-10T01:27:49;98422.34;;;20.08;66.57
66801;BME280;53703;50.326;19.122;2023-06-10T01:30:48;98419.10;;;20.12;66.26
66801;BME280;53703;50.326;19.122;2023-06-10T01:33:48;98417.16;;;20.05;66.81
66801;BME280;53703;50.326;19.122;2023-06-10T01:36:48;98418.99;;;20.06;66.69
66801;BME280;53703;50.326;19.122;2023-06-10T01:39:43;98426.54;;;20.12;66.35
66801;BME280;53703;50.326;19.122;2023-06-10T01:42:39;98431.63;;;20.04;67.05
66801;BME280;53703;50.326;19.122;2023-06-10T01:45:16;98433.89;;;19.99;67.23
66801;BME280;53703;50.326;19.122;2023-06-10T01:48:10;98431.73;;;19.97;67.34
66801;BME280;53703;50.326;19.122;2023-06-10T01:51:04;98432.80;;;19.99;67.18
66801;BME280;53703;50.326;19.122;2023-06-10T01:53:59;98431.67;;;19.99;67.65
66801;BME280;53703;50.326;19.122;2023-06-10T01:56:53;98433.54;;;20.00;67.02
66801;BME280;53703;50.326;19.122;2023-06-10T01:59:32;98431.68;;;19.99;67.04
66801;BME280;53703;50.326;19.122;2023-06-10T02:02:26;98429.77;;;20.02;66.86
66801;BME280;53703;50.326;19.122;2023-06-10T02:05:20;98435.94;;;20.11;66.16
66801;BME280;53703;50.326;19.122;2023-06-10T02:08:15;98441.02;;;20.12;66.15
66801;BME280;53703;50.326;19.122;2023-06-10T02:11:09;98443.93;;;20.07;66.77
66801;BME280;53703;50.326;19.122;2023-06-10T02:14:04;98449.20;;;20.01;67.13
66801;BME280;53703;50.326;19.122;2023-06-10T02:16:58;98451.17;;;20.01;67.06
66801;BME280;53703;50.326;19.122;2023-06-10T02:19:53;98449.09;;;19.99;67.35
66801;BME280;53703;50.326;19.122;2023-06-10T02:22:48;98449.77;;;19.98;67.29
66801;BME280;53703;50.326;19.122;2023-06-10T02:25:42;98449.74;;;19.92;67.76
66801;BME280;53703;50.326;19.122;2023-06-10T02:28:36;98448.94;;;19.88;67.92
66801;BME280;53703;50.326;19.122;2023-06-10T02:31:30;98454.33;;;19.96;67.51
66801;BME280;53703;50.326;19.122;2023-06-10T02:34:28;98453.21;;;19.92;68.20
66801;BME280;53703;50.326;19.122;2023-06-10T02:37:12;98455.56;;;19.98;67.82
66801;BME280;53703;50.326;19.122;2023-06-10T02:40:08;98456.19;;;20.02;67.45
66801;BME280;53703;50.326;19.122;2023-06-10T02:43:03;98453.86;;;19.96;68.09
66801;BME280;53703;50.326;19.122;2023-06-10T02:45:57;98454.04;;;19.89;68.33
66801;BME280;53703;50.326;19.122;2023-06-10T02:48:51;98454.73;;;20.00;67.52
66801;BME280;53703;50.326;19.122;2023-06-10T02:51:45;98455.48;;;19.90;68.32
66801;BME280;53703;50.326;19.122;2023-06-10T02:54:40;98459.91;;;19.90;68.28
66801;BME280;53703;50.326;19.122;2023-06-10T02:57:34;98457.91;;;19.89;68.66
66801;BME280;53703;50.326;19.122;2023-06-10T03:00:28;98455.11;;;19.87;68.42
66801;BME280;53703;50.326;19.122;2023-06-10T03:03:22;98455.77;;;19.97;67.76
66801;BME280;53703;50.326;19.122;2023-06-10T03:06:18;98461.95;;;20.01;67.54
66801;BME280;53703;50.326;19.122;2023-06-10T03:09:12;98458.91;;;20.08;67.20
66801;BME280;53703;50.326;19.122;2023-06-10T03:12:10;98463.67;;;20.00;67.72
66801;BME280;53703;50.326;19.122;2023-06-10T03:15:05;98465.44;;;20.06;67.08
66801;BME280;53703;50.326;19.122;2023-06-10T03:18:00;98468.20;;;20.09;66.96
66801;BME280;53703;50.326;19.122;2023-06-10T03:20:45;98462.21;;;20.06;66.97
66801;BME280;53703;50.326;19.122;2023-06-10T03:23:39;98466.27;;;20.03;66.90
66801;BME280;53703;50.326;19.122;2023-06-10T03:26:33;98465.14;;;19.98;67.62
66801;BME280;53703;50.326;19.122;2023-06-10T03:29:11;98466.24;;;19.98;67.95
66801;BME280;53703;50.326;19.122;2023-06-10T03:31:50;98468.69;;;19.98;67.58
66801;BME280;53703;50.326;19.122;2023-06-10T03:34:45;98472.86;;;19.93;68.13
66801;BME280;53703;50.326;19.122;2023-06-10T03:37:40;98475.66;;;19.86;68.35
66801;BME280;53703;50.326;19.122;2023-06-10T03:40:24;98477.95;;;19.90;68.07
66801;BME280;53703;50.326;19.122;2023-06-10T03:43:08;98482.48;;;19.95;67.71
66801;BME280;53703;50.326;19.122;2023-06-10T03:45:53;98487.41;;;19.95;68.19
66801;BME280;53703;50.326;19.122;2023-06-10T03:48:47;98489.95;;;19.88;68.52
66801;BME280;53703;50.326;19.122;2023-06-10T03:51:41;98490.39;;;19.91;68.48
66801;BME280;53703;50.326;19.122;2023-06-10T03:54:35;98490.87;;;19.95;68.18
66801;BME280;53703;50.326;19.122;2023-06-10T03:57:30;98491.48;;;20.05;67.23
66801;BME280;53703;50.326;19.122;2023-06-10T04:00:25;98490.81;;;20.00;67.92
66801;BME280;53703;50.326;19.122;2023-06-10T04:03:22;98496.06;;;19.97;67.73
66801;BME280;53703;50.326;19.122;2023-06-10T04:06:11;98496.79;;;20.01;67.50
66801;BME280;53703;50.326;19.122;2023-06-10T04:09:06;98501.69;;;19.95;67.97
66801;BME280;53703;50.326;19.122;2023-06-10T04:12:26;98499.05;;;19.92;68.26
66801;BME280;53703;50.326;19.122;2023-06-10T04:15:12;98496.08;;;19.95;67.72
66801;BME280;53703;50.326;19.122;2023-06-10T04:18:09;98497.46;;;20.00;67.71
66801;BME280;53703;50.326;19.122;2023-06-10T04:21:31;98502.88;;;20.01;67.30
66801;BME280;53703;50.326;19.122;2023-06-10T04:27:44;98499.88;;;20.02;67.15
66801;BME280;53703;50.326;19.122;2023-06-10T04:30:22;98501.73;;;19.96;67.36
66801;BME280;53703;50.326;19.122;2023-06-10T04:33:16;98500.42;;;19.98;67.71
66801;BME280;53703;50.326;19.122;2023-06-10T04:36:10;98508.16;;;20.00;67.24
66801;BME280;53703;50.326;19.122;2023-06-10T04:39:07;98507.20;;;19.96;67.66
66801;BME280;53703;50.326;19.122;2023-06-10T04:42:00;98502.15;;;19.97;67.62
66801;BME280;53703;50.326;19.122;2023-06-10T04:44:54;98502.50;;;20.02;67.34
66801;BME280;53703;50.326;19.122;2023-06-10T04:47:48;98508.77;;;19.96;67.87
66801;BME280;53703;50.326;19.122;2023-06-10T04:50:43;98508.74;;;19.98;67.54
66801;BME280;53703;50.326;19.122;2023-06-10T04:53:37;98509.76;;;20.01;67.20
66801;BME280;53703;50.326;19.122;2023-06-10T04:56:31;98508.39;;;20.04;66.70
66801;BME280;53703;50.326;19.122;2023-06-10T04:59:25;98508.41;;;20.01;67.52
66801;BME280;53703;50.326;19.122;2023-06-10T05:02:20;98512.70;;;19.98;67.50
66801;BME280;53703;50.326;19.122;2023-06-10T05:05:05;98508.47;;;19.97;67.98
66801;BME280;53703;50.326;19.122;2023-06-10T05:08:00;98512.64;;;20.06;67.00
66801;BME280;53703;50.326;19.122;2023-06-10T05:10:39;98515.36;;;20.04;67.20
66801;BME280;53703;50.326;19.122;2023-06-10T05:13:16;98515.81;;;20.00;67.60
66801;BME280;53703;50.326;19.122;2023-06-10T05:16:11;98517.33;;;20.03;67.26
66801;BME280;53703;50.326;19.122;2023-06-10T05:18:55;98514.51;;;20.01;67.16
66801;BME280;53703;50.326;19.122;2023-06-10T05:21:34;98517.13;;;19.97;67.76
66801;BME280;53703;50.326;19.122;2023-06-10T05:24:13;98516.29;;;19.96;67.64
66801;BME280;53703;50.326;19.122;2023-06-10T05:27:08;98517.23;;;19.99;67.61
66801;BME280;53703;50.326;19.122;2023-06-10T05:30:03;98516.07;;;20.00;67.23
66801;BME280;53703;50.326;19.122;2023-06-10T05:32:57;98514.14;;;20.02;67.42
66801;BME280;53703;50.326;19.122;2023-06-10T05:35:34;98518.23;;;20.01;67.52
66801;BME280;53703;50.326;19.122;2023-06-10T05:38:29;98522.19;;;20.02;67.67
66801;BME280;53703;50.326;19.122;2023-06-10T05:41:23;98518.70;;;20.05;67.50
66801;BME280;53703;50.326;19.122;2023-06-10T05:44:18;98524.33;;;20.02;67.25
66801;BME280;53703;50.326;19.122;2023-06-10T05:47:12;98532.88;;;20.06;67.37
66801;BME280;53703;50.326;19.122;2023-06-10T05:50:08;98534.69;;;20.05;67.74
66801;BME280;53703;50.326;19.122;2023-06-10T05:53:02;98535.23;;;20.00;68.13
66801;BME280;53703;50.326;19.122;2023-06-10T05:55:56;98541.54;;;19.72;70.17
66801;BME280;53703;50.326;19.122;2023-06-10T05:58:33;98540.54;;;19.62;71.35
66801;BME280;53703;50.326;19.122;2023-06-10T06:01:26;98538.46;;;19.54;72.07
66801;BME280;53703;50.326;19.122;2023-06-10T06:04:21;98542.53;;;19.52;71.92
66801;BME280;53703;50.326;19.122;2023-06-10T06:07:15;98542.79;;;19.49;71.70
66801;BME280;53703;50.326;19.122;2023-06-10T06:10:10;98543.85;;;19.47;71.74
66801;BME280;53703;50.326;19.122;2023-06-10T06:13:04;98545.17;;;19.46;72.04
66801;BME280;53703;50.326;19.122;2023-06-10T06:15:58;98549.22;;;19.39;72.25
66801;BME280;53703;50.326;19.122;2023-06-10T06:18:35;98550.39;;;19.53;71.66
66801;BME280;53703;50.326;19.122;2023-06-10T06:21:29;98548.94;;;19.41;72.19
66801;BME280;53703;50.326;19.122;2023-06-10T06:24:23;98552.92;;;19.42;71.37
66801;BME280;53703;50.326;19.122;2023-06-10T06:27:17;98554.13;;;19.54;70.96
66801;BME280;53703;50.326;19.122;2023-06-10T06:29:56;98563.77;;;19.43;71.43
66801;BME280;53703;50.326;19.122;2023-06-10T06:32:50;98569.67;;;19.38;71.57
66801;BME280;53703;50.326;19.122;2023-06-10T06:35:45;98574.64;;;19.34;71.62
66801;BME280;53703;50.326;19.122;2023-06-10T06:38:24;98573.63;;;19.38;71.38
66801;BME280;53703;50.326;19.122;2023-06-10T06:41:18;98578.55;;;19.32;71.35
66801;BME280;53703;50.326;19.122;2023-06-10T06:43:51;98581.02;;;19.26;71.99
66801;BME280;53703;50.326;19.122;2023-06-10T06:46:27;98581.04;;;19.20;72.23
66801;BME280;53703;50.326;19.122;2023-06-10T06:49:21;98581.80;;;19.12;72.79
66801;BME280;53703;50.326;19.122;2023-06-10T06:51:58;98583.70;;;19.22;72.43
66801;BME280;53703;50.326;19.122;2023-06-10T06:54:52;98586.20;;;19.18;72.59
66801;BME280;53703;50.326;19.122;2023-06-10T06:57:31;98586.84;;;19.18;72.63
66801;BME280;53703;50.326;19.122;2023-06-10T07:00:25;98590.04;;;19.26;72.29
66801;BME280;53703;50.326;19.122;2023-06-10T07:03:04;98587.73;;;19.43;71.60
66801;BME280;53703;50.326;19.122;2023-06-10T07:05:46;98590.35;;;19.47;72.15
66801;BME280;53703;50.326;19.122;2023-06-10T07:08:23;98590.38;;;19.41;72.60
66801;BME280;53703;50.326;19.122;2023-06-10T07:11:17;98593.66;;;19.39;72.48
66801;BME280;53703;50.326;19.122;2023-06-10T07:14:11;98597.91;;;19.39;72.46
66801;BME280;53703;50.326;19.122;2023-06-10T07:17:05;98599.81;;;19.42;72.54
66801;BME280;53703;50.326;19.122;2023-06-10T07:19:59;98603.16;;;19.61;71.51
66801;BME280;53703;50.326;19.122;2023-06-10T07:22:53;98602.42;;;19.75;70.43
66801;BME280;53703;50.326;19.122;2023-06-10T07:25:47;98602.08;;;19.77;70.44
66801;BME280;53703;50.326;19.122;2023-06-10T07:28:41;98601.80;;;19.72;70.78
66801;BME280;53703;50.326;19.122;2023-06-10T07:31:21;98607.18;;;19.79;70.38
66801;BME280;53703;50.326;19.122;2023-06-10T07:33:58;98606.89;;;19.81;70.30
66801;BME280;53703;50.326;19.122;2023-06-10T07:36:36;98609.73;;;19.84;69.91
66801;BME280;53703;50.326;19.122;2023-06-10T07:39:30;98613.27;;;19.62;72.42
66801;BME280;53703;50.326;19.122;2023-06-10T07:42:24;98611.42;;;19.46;72.64
66801;BME280;53703;50.326;19.122;2023-06-10T07:45:18;98609.70;;;19.43;72.65
66801;BME280;53703;50.326;19.122;2023-06-10T07:47:58;98609.36;;;19.38;73.02
66801;BME280;53703;50.326;19.122;2023-06-10T07:50:52;98606.96;;;19.58;72.14
66801;BME280;53703;50.326;19.122;2023-06-10T07:53:46;98608.48;;;19.70;71.68
66801;BME280;53703;50.326;19.122;2023-06-10T07:56:40;98610.83;;;19.68;71.54
66801;BME280;53703;50.326;19.122;2023-06-10T07:59:34;98614.07;;;19.69;71.59
66801;BME280;53703;50.326;19.122;2023-06-10T08:02:28;98618.08;;;19.67;71.41
66801;BME280;53703;50.326;19.122;2023-06-10T08:05:23;98621.02;;;19.68;71.16
66801;BME280;53703;50.326;19.122;2023-06-10T08:08:07;98625.01;;;19.84;70.34
66801;BME280;53703;50.326;19.122;2023-06-10T08:11:01;98628.73;;;19.81;70.70
66801;BME280;53703;50.326;19.122;2023-06-10T08:13:55;98631.83;;;19.85;70.36
66801;BME280;53703;50.326;19.122;2023-06-10T08:16:40;98631.33;;;19.84;70.35
66801;BME280;53703;50.326;19.122;2023-06-10T08:19:25;98628.65;;;19.88;69.83
66801;BME280;53703;50.326;19.122;2023-06-10T08:22:20;98629.84;;;19.81;70.73
66801;BME280;53703;50.326;19.122;2023-06-10T08:25:14;98628.05;;;19.82;70.59
66801;BME280;53703;50.326;19.122;2023-06-10T08:28:08;98628.71;;;19.88;70.36
66801;BME280;53703;50.326;19.122;2023-06-10T08:31:02;98624.02;;;19.90;70.32
66801;BME280;53703;50.326;19.122;2023-06-10T08:33:56;98618.64;;;19.94;69.77
66801;BME280;53703;50.326;19.122;2023-06-10T08:36:36;98622.01;;;19.95;69.65
66801;BME280;53703;50.326;19.122;2023-06-10T08:39:30;98631.28;;;19.75;70.87
66801;BME280;53703;50.326;19.122;2023-06-10T08:42:32;98635.48;;;19.75;70.85
66801;BME280;53703;50.326;19.122;2023-06-10T08:45:20;98635.95;;;19.75;70.71
66801;BME280;53703;50.326;19.122;2023-06-10T08:48:16;98638.23;;;19.78;70.45
66801;BME280;53703;50.326;19.122;2023-06-10T08:51:11;98642.88;;;19.80;70.33
66801;BME280;53703;50.326;19.122;2023-06-10T08:54:14;98641.80;;;19.78;70.54
66801;BME280;53703;50.326;19.122;2023-06-10T08:57:09;98642.09;;;19.95;69.35
66801;BME280;53703;50.326;19.122;2023-06-10T08:59:49;98648.36;;;19.84;70.15
66801;BME280;53703;50.326;19.122;2023-06-10T09:02:44;98645.16;;;19.73;70.87
66801;BME280;53703;50.326;19.122;2023-06-10T09:05:39;98647.14;;;19.83;70.12
66801;BME280;53703;50.326;19.122;2023-06-10T09:08:34;98647.54;;;19.80;70.44
66801;BME280;53703;50.326;19.122;2023-06-10T09:11:12;98646.28;;;19.84;70.17
66801;BME280;53703;50.326;19.122;2023-06-10T09:13:51;98643.06;;;19.85;70.28
66801;BME280;53703;50.326;19.122;2023-06-10T09:16:30;98645.73;;;19.84;70.61
66801;BME280;53703;50.326;19.122;2023-06-10T09:19:15;98643.77;;;19.84;70.31
66801;BME280;53703;50.326;19.122;2023-06-10T09:22:10;98642.70;;;19.94;69.60
66801;BME280;53703;50.326;19.122;2023-06-10T09:24:50;98641.60;;;19.87;70.04
66801;BME280;53703;50.326;19.122;2023-06-10T09:27:52;98641.02;;;19.92;70.16
66801;BME280;53703;50.326;19.122;2023-06-10T09:30:47;98641.88;;;19.85;70.42
66801;BME280;53703;50.326;19.122;2023-06-10T09:33:41;98648.80;;;19.92;69.90
66801;BME280;53703;50.326;19.122;2023-06-10T09:36:37;98647.08;;;20.01;69.07
66801;BME280;53703;50.326;19.122;2023-06-10T09:39:31;98644.55;;;20.02;68.22
66801;BME280;53703;50.326;19.122;2023-06-10T09:42:25;98646.34;;;20.01;68.07
66801;BME280;53703;50.326;19.122;2023-06-10T09:45:07;98646.89;;;20.08;67.99
66801;BME280;53703;50.326;19.122;2023-06-10T09:48:01;98641.52;;;20.05;68.65
66801;BME280;53703;50.326;19.122;2023-06-10T09:50:55;98646.80;;;19.96;69.48
66801;BME280;53703;50.326;19.122;2023-06-10T09:53:52;98648.06;;;19.90;69.25
66801;BME280;53703;50.326;19.122;2023-06-10T09:56:48;98648.44;;;19.99;68.95
66801;BME280;53703;50.326;19.122;2023-06-10T09:59:42;98646.02;;;19.90;69.41
66801;BME280;53703;50.326;19.122;2023-06-10T10:02:45;98642.41;;;19.98;68.72
66801;BME280;53703;50.326;19.122;2023-06-10T10:05:40;98640.40;;;19.90;68.91
66801;BME280;53703;50.326;19.122;2023-06-10T10:08:35;98638.57;;;19.93;68.71
66801;BME280;53703;50.326;19.122;2023-06-10T10:11:29;98639.73;;;19.88;69.12
66801;BME280;53703;50.326;19.122;2023-06-10T10:14:25;98643.95;;;19.90;68.75
66801;BME280;53703;50.326;19.122;2023-06-10T10:17:21;98643.21;;;19.92;68.63
66801;BME280;53703;50.326;19.122;2023-06-10T10:20:04;98643.16;;;20.00;68.18
66801;BME280;53703;50.326;19.122;2023-06-10T10:23:02;98639.75;;;19.93;68.46
66801;BME280;53703;50.326;19.122;2023-06-10T10:25:49;98644.91;;;19.90;68.54
66801;BME280;53703;50.326;19.122;2023-06-10T10:28:53;98644.09;;;19.93;68.16
66801;BME280;53703;50.326;19.122;2023-06-10T10:31:52;98654.04;;;19.95;67.84
66801;BME280;53703;50.326;19.122;2023-06-10T10:34:53;98647.77;;;20.04;67.63
66801;BME280;53703;50.326;19.122;2023-06-10T10:37:52;98642.85;;;20.08;67.30
66801;BME280;53703;50.326;19.122;2023-06-10T10:40:47;98640.67;;;20.06;67.28
66801;BME280;53703;50.326;19.122;2023-06-10T10:43:42;98638.66;;;20.16;67.09
66801;BME280;53703;50.326;19.122;2023-06-10T10:46:50;98643.41;;;20.15;66.91
66801;BME280;53703;50.326;19.122;2023-06-10T10:49:47;98642.73;;;20.13;66.88
66801;BME280;53703;50.326;19.122;2023-06-10T10:52:25;98637.23;;;20.11;66.99
66801;BME280;53703;50.326;19.122;2023-06-10T10:55:23;98640.21;;;20.14;66.80
66801;BME280;53703;50.326;19.122;2023-06-10T10:58:25;98637.02;;;20.16;66.52
66801;BME280;53703;50.326;19.122;2023-06-10T11:01:19;98629.87;;;20.11;66.61
66801;BME280;53703;50.326;19.122;2023-06-10T11:04:13;98627.61;;;20.09;66.34
66801;BME280;53703;50.326;19.122;2023-06-10T11:07:10;98622.11;;;20.08;66.35
66801;BME280;53703;50.326;19.122;2023-06-10T11:10:03;98622.22;;;20.09;66.44
66801;BME280;53703;50.326;19.122;2023-06-10T11:12:59;98614.69;;;20.08;66.23
66801;BME280;53703;50.326;19.122;2023-06-10T11:15:58;98611.60;;;20.08;66.15
66801;BME280;53703;50.326;19.122;2023-06-10T11:18:54;98606.55;;;20.09;66.10
66801;BME280;53703;50.326;19.122;2023-06-10T11:22:03;98599.39;;;20.08;65.85
66801;BME280;53703;50.326;19.122;2023-06-10T11:24:57;98599.80;;;20.08;65.90
66801;BME280;53703;50.326;19.122;2023-06-10T11:27:53;98596.88;;;20.08;65.80
66801;BME280;53703;50.326;19.122;2023-06-10T11:30:47;98593.61;;;20.07;65.62
66801;BME280;53703;50.326;19.122;2023-06-10T11:33:53;98594.63;;;20.07;65.67
66801;BME280;53703;50.326;19.122;2023-06-10T11:36:47;98593.30;;;20.07;65.52
66801;BME280;53703;50.326;19.122;2023-06-10T11:39:41;98594.73;;;20.08;65.68
66801;BME280;53703;50.326;19.122;2023-06-10T11:42:34;98593.22;;;20.07;65.60
66801;BME280;53703;50.326;19.122;2023-06-10T11:45:31;98594.57;;;20.08;65.62
66801;BME280;53703;50.326;19.122;2023-06-10T11:48:25;98593.55;;;20.08;65.60
66801;BME280;53703;50.326;19.122;2023-06-10T11:51:21;98593.20;;;20.07;65.44
66801;BME280;53703;50.326;19.122;2023-06-10T11:54:15;98590.84;;;20.07;65.44
66801;BME280;53703;50.326;19.122;2023-06-10T11:57:10;98588.44;;;20.06;65.46
66801;BME280;53703;50.326;19.122;2023-06-10T12:00:09;98586.88;;;20.07;65.36
66801;BME280;53703;50.326;19.122;2023-06-10T12:02:59;98586.88;;;20.07;65.43
66801;BME280;53703;50.326;19.122;2023-06-10T12:06:06;98582.13;;;20.07;65.26
66801;BME280;53703;50.326;19.122;2023-06-10T12:09:00;98581.65;;;20.06;65.19
66801;BME280;53703;50.326;19.122;2023-06-10T12:12:14;98587.12;;;20.07;65.22
66801;BME280;53703;50.326;19.122;2023-06-10T12:15:10;98588.84;;;20.06;65.39
66801;BME280;53703;50.326;19.122;2023-06-10T12:18:06;98586.80;;;20.06;65.38
66801;BME280;53703;50.326;19.122;2023-06-10T12:21:00;98592.19;;;20.07;65.19
66801;BME280;53703;50.326;19.122;2023-06-10T12:24:10;98594.25;;;20.08;65.16
66801;BME280;53703;50.326;19.122;2023-06-10T12:27:04;98582.84;;;20.07;65.13
66801;BME280;53703;50.326;19.122;2023-06-10T12:30:00;98583.00;;;20.06;64.98
66801;BME280;53703;50.326;19.122;2023-06-10T12:32:57;98578.17;;;20.07;65.01
66801;BME280;53703;50.326;19.122;2023-06-10T12:35:52;98580.21;;;20.06;64.98
66801;BME280;53703;50.326;19.122;2023-06-10T12:38:46;98576.83;;;20.07;64.80
66801;BME280;53703;50.326;19.122;2023-06-10T12:41:49;98577.85;;;20.07;64.90
66801;BME280;53703;50.326;19.122;2023-06-10T12:44:44;98571.67;;;20.06;64.81
66801;BME280;53703;50.326;19.122;2023-06-10T12:47:47;98571.59;;;20.06;64.90
66801;BME280;53703;50.326;19.122;2023-06-10T12:50:43;98568.71;;;20.05;64.72
66801;BME280;53703;50.326;19.122;2023-06-10T12:53:37;98572.63;;;20.07;64.72
66801;BME280;53703;50.326;19.122;2023-06-10T12:56:17;98571.52;;;20.06;64.79
66801;BME280;53703;50.326;19.122;2023-06-10T12:59:11;98574.77;;;20.07;64.64
66801;BME280;53703;50.326;19.122;2023-06-10T13:02:05;98578.39;;;20.06;64.79
66801;BME280;53703;50.326;19.122;2023-06-10T13:05:00;98573.80;;;20.07;64.65
66801;BME280;53703;50.326;19.122;2023-06-10T13:07:56;98574.90;;;20.05;64.53
66801;BME280;53703;50.326;19.122;2023-06-10T13:10:50;98570.23;;;20.06;64.55
66801;BME280;53703;50.326;19.122;2023-06-10T13:13:44;98568.73;;;20.06;64.67
66801;BME280;53703;50.326;19.122;2023-06-10T13:16:39;98565.71;;;20.06;64.62
66801;BME280;53703;50.326;19.122;2023-06-10T13:19:33;98564.37;;;20.05;64.49
66801;BME280;53703;50.326;19.122;2023-06-10T13:22:17;98559.38;;;20.05;64.52
66801;BME280;53703;50.326;19.122;2023-06-10T13:25:13;98554.02;;;20.06;64.33
66801;BME280;53703;50.326;19.122;2023-06-10T13:28:08;98551.81;;;20.07;64.33
66801;BME280;53703;50.326;19.122;2023-06-10T13:31:01;98548.24;;;20.06;64.26
66801;BME280;53703;50.326;19.122;2023-06-10T13:33:41;98555.60;;;20.06;64.22
66801;BME280;53703;50.326;19.122;2023-06-10T13:36:36;98554.34;;;20.06;64.25
66801;BME280;53703;50.326;19.122;2023-06-10T13:39:13;98551.80;;;20.06;64.44
66801;BME280;53703;50.326;19.122;2023-06-10T13:41:49;98552.36;;;20.06;64.27
66801;BME280;53703;50.326;19.122;2023-06-10T13:44:44;98551.39;;;20.05;64.29
66801;BME280;53703;50.326;19.122;2023-06-10T13:47:39;98557.25;;;20.06;64.07
66801;BME280;53703;50.326;19.122;2023-06-10T13:50:33;98555.04;;;20.06;64.24
66801;BME280;53703;50.326;19.122;2023-06-10T13:53:27;98555.58;;;20.05;64.08
66801;BME280;53703;50.326;19.122;2023-06-10T13:56:21;98555.50;;;20.05;64.17
66801;BME280;53703;50.326;19.122;2023-06-10T13:59:15;98557.64;;;20.05;64.00
66801;BME280;53703;50.326;19.122;2023-06-10T14:01:51;98559.80;;;20.06;64.11
66801;BME280;53703;50.326;19.122;2023-06-10T14:04:45;98564.54;;;20.05;64.09
66801;BME280;53703;50.326;19.122;2023-06-10T14:07:39;98575.05;;;20.05;64.01
66801;BME280;53703;50.326;19.122;2023-06-10T14:10:33;98598.55;;;20.05;63.95
66801;BME280;53703;50.326;19.122;2023-06-10T14:13:27;98612.48;;;20.05;63.94
66801;BME280;53703;50.326;19.122;2023-06-10T14:16:05;98606.54;;;20.04;64.03
66801;BME280;53703;50.326;19.122;2023-06-10T14:18:58;98598.05;;;20.04;63.87
66801;BME280;53703;50.326;19.122;2023-06-10T14:21:53;98592.83;;;20.04;63.75
66801;BME280;53703;50.326;19.122;2023-06-10T14:24:38;98582.21;;;20.03;63.84
66801;BME280;53703;50.326;19.122;2023-06-10T14:27:32;98582.38;;;20.03;63.89
66801;BME280;53703;50.326;19.122;2023-06-10T14:30:26;98582.14;;;20.03;63.73
66801;BME280;53703;50.326;19.122;2023-06-10T14:33:02;98582.78;;;20.04;63.68
66801;BME280;53703;50.326;19.122;2023-06-10T14:35:56;98583.33;;;20.04;63.83
66801;BME280;53703;50.326;19.122;2023-06-10T14:38:50;98582.98;;;20.02;63.76
66801;BME280;53703;50.326;19.122;2023-06-10T14:41:44;98589.48;;;20.02;63.77
66801;BME280;53703;50.326;19.122;2023-06-10T14:44:38;98584.09;;;20.02;63.91
66801;BME280;53703;50.326;19.122;2023-06-10T14:47:33;98574.77;;;20.03;63.64
66801;BME280;53703;50.326;19.122;2023-06-10T14:50:27;98577.30;;;20.03;63.66
66801;BME280;53703;50.326;19.122;2023-06-10T14:53:21;98579.67;;;20.03;63.59
66801;BME280;53703;50.326;19.122;2023-06-10T14:56:14;98579.05;;;20.03;63.44
66801;BME280;53703;50.326;19.122;2023-06-10T14:59:09;98576.04;;;20.03;63.38
66801;BME280;53703;50.326;19.122;2023-06-10T15:02:03;98584.29;;;20.04;63.52
66801;BME280;53703;50.326;19.122;2023-06-10T15:04:57;98585.55;;;20.04;63.58
66801;BME280;53703;50.326;19.122;2023-06-10T15:07:52;98585.84;;;20.03;63.34
66801;BME280;53703;50.326;19.122;2023-06-10T15:10:46;98586.16;;;20.03;63.52
66801;BME280;53703;50.326;19.122;2023-06-10T15:13:40;98587.92;;;20.03;63.39
66801;BME280;53703;50.326;19.122;2023-06-10T15:16:32;98589.33;;;20.03;63.31
66801;BME280;53703;50.326;19.122;2023-06-10T15:19:26;98594.23;;;20.03;63.47
66801;BME280;53703;50.326;19.122;2023-06-10T15:22:20;98593.29;;;20.03;63.57
66801;BME280;53703;50.326;19.122;2023-06-10T15:25:14;98598.44;;;20.03;63.36
66801;BME280;53703;50.326;19.122;2023-06-10T15:28:22;98601.98;;;20.02;63.27
66801;BME280;53703;50.326;19.122;2023-06-10T15:31:05;98598.44;;;20.03;63.37